sensor_id;sensor_type;location;lat;lon;timestamp;temperature;humidity
35491;DHT22;21605;52.068;20.806;2022-07-24T00:02:13;21.30;99.90
35491;DHT22;21605;52.068;20.806;2022-07-24T00:04:39;21.30;99.90
35491;DHT22;21605;52.068;20.806;2022-07-24T00:07:05;21.30;99.90
35491;DHT22;21605;52.068;20.806;2022-07-24T00:09:30;21.30;99.90
35491;DHT22;21605;52.068;20.806;2022-07-24T00:11:56;21.30;99.90
35491;DHT22;21605;52.068;20.806;2022-07-24T00:14:22;21.30;99.90
35491;DHT22;21605;52.068;20.806;2022-07-24T00:16:47;21.30;99.90
35491;DHT22;21605;52.068;20.806;2022-07-24T00:19:13;21.30;99.90
35491;DHT22;21605;52.068;20.806;2022-07-24T00:21:39;21.30;99.90
35491;DHT22;21605;52.068;20.806;2022-07-24T00:24:05;21.30;99.90
35491;DHT22;21605;52.068;20.806;2022-07-24T00:26:30;21.30;99.90
35491;DHT22;21605;52.068;20.806;2022-07-24T00:28:56;21.30;99.90
35491;DHT22;21605;52.068;20.806;2022-07-24T00:31:22;21.30;99.90
35491;DHT22;21605;52.068;20.806;2022-07-24T00:33:48;21.30;99.90
35491;DHT22;21605;52.068;20.806;2022-07-24T00:36:14;21.30;99.90
35491;DHT22;21605;52.068;20.806;2022-07-24T00:38:40;21.30;99.90
35491;DHT22;21605;52.068;20.806;2022-07-24T00:41:06;21.30;99.90
35491;DHT22;21605;52.068;20.806;2022-07-24T00:43:31;21.30;99.90
35491;DHT22;21605;52.068;20.806;2022-07-24T00:45:57;21.30;99.90
35491;DHT22;21605;52.068;20.806;2022-07-24T00:48:22;21.30;99.90
35491;DHT22;21605;52.068;20.806;2022-07-24T00:50:48;21.30;99.90
35491;DHT22;21605;52.068;20.806;2022-07-24T00:53:15;21.30;99.90
35491;DHT22;21605;52.068;20.806;2022-07-24T00:55:41;21.30;99.90
35491;DHT22;21605;52.068;20.806;2022-07-24T00:58:07;21.20;99.90
35491;DHT22;21605;52.068;20.806;2022-07-24T01:00:34;21.20;99.90
35491;DHT22;21605;52.068;20.806;2022-07-24T01:02:59;21.20;99.90
35491;DHT22;21605;52.068;20.806;2022-07-24T01:05:25;21.20;99.90
35491;DHT22;21605;52.068;20.806;2022-07-24T01:07:51;21.20;99.90
35491;DHT22;21605;52.068;20.806;2022-07-24T01:10:17;21.20;99.90
35491;DHT22;21605;52.068;20.806;2022-07-24T01:12:42;21.20;99.90
35491;DHT22;21605;52.068;20.806;2022-07-24T01:15:10;21.20;99.90
35491;DHT22;21605;52.068;20.806;2022-07-24T01:17:39;21.20;99.90
35491;DHT22;21605;52.068;20.806;2022-07-24T01:20:05;21.20;99.90
35491;DHT22;21605;52.068;20.806;2022-07-24T01:22:31;21.20;99.90
35491;DHT22;21605;52.068;20.806;2022-07-24T01:24:57;21.20;99.90
35491;DHT22;21605;52.068;20.806;2022-07-24T01:27:24;21.20;99.90
35491;DHT22;21605;52.068;20.806;2022-07-24T01:29:50;21.20;99.90
35491;DHT22;21605;52.068;20.806;2022-07-24T01:32:16;21.20;99.90
35491;DHT22;21605;52.068;20.806;2022-07-24T01:34:42;21.20;99.90
35491;DHT22;21605;52.068;20.806;2022-07-24T01:37:07;21.10;99.90
35491;DHT22;21605;52.068;20.806;2022-07-24T01:39:33;21.10;99.90
35491;DHT22;21605;52.068;20.806;2022-07-24T01:41:59;21.10;99.90
35491;DHT22;21605;52.068;20.806;2022-07-24T01:44:24;21.10;99.90
35491;DHT22;21605;52.068;20.806;2022-07-24T01:46:50;21.10;99.90
35491;DHT22;21605;52.068;20.806;2022-07-24T01:49:16;21.00;99.90
35491;DHT22;21605;52.068;20.806;2022-07-24T01:51:41;21.00;99.90
35491;DHT22;21605;52.068;20.806;2022-07-24T01:54:07;21.00;99.90
35491;DHT22;21605;52.068;20.806;2022-07-24T01:56:33;20.90;99.90
35491;DHT22;21605;52.068;20.806;2022-07-24T01:58:59;20.80;99.90
35491;DHT22;21605;52.068;20.806;2022-07-24T02:04:00;20.60;99.90
35491;DHT22;21605;52.068;20.806;2022-07-24T02:06:25;20.50;99.90
35491;DHT22;21605;52.068;20.806;2022-07-24T02:08:51;20.40;99.80
35491;DHT22;21605;52.068;20.806;2022-07-24T02:11:16;20.30;99.30
35491;DHT22;21605;52.068;20.806;2022-07-24T02:13:44;20.20;98.40
35491;DHT22;21605;52.068;20.806;2022-07-24T02:16:10;20.00;98.70
35491;DHT22;21605;52.068;20.806;2022-07-24T02:18:36;19.90;98.40
35491;DHT22;21605;52.068;20.806;2022-07-24T02:21:02;19.80;98.20
35491;DHT22;21605;52.068;20.806;2022-07-24T02:23:28;19.70;98.70
35491;DHT22;21605;52.068;20.806;2022-07-24T02:25:54;19.60;99.00
35491;DHT22;21605;52.068;20.806;2022-07-24T02:28:20;19.50;99.00
35491;DHT22;21605;52.068;20.806;2022-07-24T02:30:45;19.40;99.40
35491;DHT22;21605;52.068;20.806;2022-07-24T02:33:11;19.30;99.70
35491;DHT22;21605;52.068;20.806;2022-07-24T02:35:37;19.20;99.40
35491;DHT22;21605;52.068;20.806;2022-07-24T02:38:04;19.20;99.40
35491;DHT22;21605;52.068;20.806;2022-07-24T02:40:30;19.10;99.30
35491;DHT22;21605;52.068;20.806;2022-07-24T02:42:56;19.10;99.10
35491;DHT22;21605;52.068;20.806;2022-07-24T02:45:22;19.00;99.30
35491;DHT22;21605;52.068;20.806;2022-07-24T02:47:50;19.00;99.60
35491;DHT22;21605;52.068;20.806;2022-07-24T02:50:17;18.90;99.60
35491;DHT22;21605;52.068;20.806;2022-07-24T02:52:42;18.90;99.40
35491;DHT22;21605;52.068;20.806;2022-07-24T02:55:08;18.90;99.50
35491;DHT22;21605;52.068;20.806;2022-07-24T02:57:35;18.90;99.40
35491;DHT22;21605;52.068;20.806;2022-07-24T03:00:02;18.80;99.70
35491;DHT22;21605;52.068;20.806;2022-07-24T03:02:28;18.70;99.80
35491;DHT22;21605;52.068;20.806;2022-07-24T03:04:53;18.70;99.60
35491;DHT22;21605;52.068;20.806;2022-07-24T03:07:19;18.70;99.60
35491;DHT22;21605;52.068;20.806;2022-07-24T03:09:45;18.60;99.60
35491;DHT22;21605;52.068;20.806;2022-07-24T03:12:10;18.60;99.30
35491;DHT22;21605;52.068;20.806;2022-07-24T03:14:36;18.60;99.70
35491;DHT22;21605;52.068;20.806;2022-07-24T03:17:03;18.60;99.50
35491;DHT22;21605;52.068;20.806;2022-07-24T03:19:29;18.50;99.90
35491;DHT22;21605;52.068;20.806;2022-07-24T03:21:54;18.50;99.90
35491;DHT22;21605;52.068;20.806;2022-07-24T03:24:20;18.50;99.90
35491;DHT22;21605;52.068;20.806;2022-07-24T03:26:46;18.50;99.90
35491;DHT22;21605;52.068;20.806;2022-07-24T03:29:11;18.50;99.90
35491;DHT22;21605;52.068;20.806;2022-07-24T03:31:37;18.50;99.90
35491;DHT22;21605;52.068;20.806;2022-07-24T03:34:02;18.40;99.90
35491;DHT22;21605;52.068;20.806;2022-07-24T03:36:28;18.40;99.90
35491;DHT22;21605;52.068;20.806;2022-07-24T03:38:54;18.40;99.90
35491;DHT22;21605;52.068;20.806;2022-07-24T03:41:19;18.40;99.90
35491;DHT22;21605;52.068;20.806;2022-07-24T03:43:45;18.40;99.90
35491;DHT22;21605;52.068;20.806;2022-07-24T03:46:10;18.40;99.90
35491;DHT22;21605;52.068;20.806;2022-07-24T03:48:36;18.40;99.90
35491;DHT22;21605;52.068;20.806;2022-07-24T03:51:02;18.40;99.90
35491;DHT22;21605;52.068;20.806;2022-07-24T03:53:27;18.40;99.90
35491;DHT22;21605;52.068;20.806;2022-07-24T03:55:53;18.40;99.90
35491;DHT22;21605;52.068;20.806;2022-07-24T03:58:19;18.40;99.90
35491;DHT22;21605;52.068;20.806;2022-07-24T04:00:44;18.40;99.90
35491;DHT22;21605;52.068;20.806;2022-07-24T04:03:10;18.40;99.90
35491;DHT22;21605;52.068;20.806;2022-07-24T04:05:35;18.40;99.90
35491;DHT22;21605;52.068;20.806;2022-07-24T04:08:01;18.40;99.90
35491;DHT22;21605;52.068;20.806;2022-07-24T04:10:26;18.40;99.90
35491;DHT22;21605;52.068;20.806;2022-07-24T04:12:52;18.40;99.90
35491;DHT22;21605;52.068;20.806;2022-07-24T04:15:18;18.40;99.90
35491;DHT22;21605;52.068;20.806;2022-07-24T04:17:43;18.40;99.90
35491;DHT22;21605;52.068;20.806;2022-07-24T04:20:10;18.40;99.90
35491;DHT22;21605;52.068;20.806;2022-07-24T04:22:36;18.40;99.90
35491;DHT22;21605;52.068;20.806;2022-07-24T04:25:02;18.50;99.90
35491;DHT22;21605;52.068;20.806;2022-07-24T04:27:28;18.40;99.90
35491;DHT22;21605;52.068;20.806;2022-07-24T04:29:54;18.50;99.90
35491;DHT22;21605;52.068;20.806;2022-07-24T04:32:19;18.50;99.90
35491;DHT22;21605;52.068;20.806;2022-07-24T04:34:45;20.30;99.90
35491;DHT22;21605;52.068;20.806;2022-07-24T04:37:10;18.50;99.90
35491;DHT22;21605;52.068;20.806;2022-07-24T04:39:36;18.50;99.90
35491;DHT22;21605;52.068;20.806;2022-07-24T04:42:02;18.50;99.90
35491;DHT22;21605;52.068;20.806;2022-07-24T04:44:27;18.60;99.90
35491;DHT22;21605;52.068;20.806;2022-07-24T04:46:53;18.60;99.90
35491;DHT22;21605;52.068;20.806;2022-07-24T04:49:18;18.60;99.90
35491;DHT22;21605;52.068;20.806;2022-07-24T04:51:44;18.60;99.90
35491;DHT22;21605;52.068;20.806;2022-07-24T04:54:09;18.60;99.90
35491;DHT22;21605;52.068;20.806;2022-07-24T04:56:35;18.60;99.90
35491;DHT22;21605;52.068;20.806;2022-07-24T04:59:01;18.60;99.90
35491;DHT22;21605;52.068;20.806;2022-07-24T05:01:28;18.70;99.90
35491;DHT22;21605;52.068;20.806;2022-07-24T05:03:53;18.70;99.90
35491;DHT22;21605;52.068;20.806;2022-07-24T05:06:24;18.70;99.90
35491;DHT22;21605;52.068;20.806;2022-07-24T05:08:50;18.70;99.90
35491;DHT22;21605;52.068;20.806;2022-07-24T05:11:16;18.70;99.90
35491;DHT22;21605;52.068;20.806;2022-07-24T05:13:42;18.80;99.90
35491;DHT22;21605;52.068;20.806;2022-07-24T05:16:07;18.80;99.90
35491;DHT22;21605;52.068;20.806;2022-07-24T05:18:33;18.80;99.90
35491;DHT22;21605;52.068;20.806;2022-07-24T05:20:59;18.80;99.90
35491;DHT22;21605;52.068;20.806;2022-07-24T05:23:24;18.90;99.90
35491;DHT22;21605;52.068;20.806;2022-07-24T05:25:50;18.90;99.90
35491;DHT22;21605;52.068;20.806;2022-07-24T05:28:16;18.90;99.90
35491;DHT22;21605;52.068;20.806;2022-07-24T05:30:42;18.90;99.90
35491;DHT22;21605;52.068;20.806;2022-07-24T05:33:08;18.90;99.90
35491;DHT22;21605;52.068;20.806;2022-07-24T05:35:33;18.90;99.90
35491;DHT22;21605;52.068;20.806;2022-07-24T05:37:59;19.00;99.90
35491;DHT22;21605;52.068;20.806;2022-07-24T05:40:24;19.00;99.90
35491;DHT22;21605;52.068;20.806;2022-07-24T05:42:50;19.00;99.40
35491;DHT22;21605;52.068;20.806;2022-07-24T05:45:16;19.00;99.60
35491;DHT22;21605;52.068;20.806;2022-07-24T05:47:41;19.00;99.10
35491;DHT22;21605;52.068;20.806;2022-07-24T05:50:11;19.00;99.10
35491;DHT22;21605;52.068;20.806;2022-07-24T05:52:38;19.00;99.90
35491;DHT22;21605;52.068;20.806;2022-07-24T05:55:04;19.10;99.90
35491;DHT22;21605;52.068;20.806;2022-07-24T05:57:31;19.20;99.20
35491;DHT22;21605;52.068;20.806;2022-07-24T05:59:56;19.20;99.30
35491;DHT22;21605;52.068;20.806;2022-07-24T06:02:22;19.30;99.20
35491;DHT22;21605;52.068;20.806;2022-07-24T06:04:48;19.30;98.90
35491;DHT22;21605;52.068;20.806;2022-07-24T06:07:13;19.40;98.60
35491;DHT22;21605;52.068;20.806;2022-07-24T06:09:39;19.40;98.00
35491;DHT22;21605;52.068;20.806;2022-07-24T06:12:07;19.50;98.20
35491;DHT22;21605;52.068;20.806;2022-07-24T06:14:33;19.60;97.60
35491;DHT22;21605;52.068;20.806;2022-07-24T06:16:59;19.60;97.40
35491;DHT22;21605;52.068;20.806;2022-07-24T06:19:25;19.70;98.00
35491;DHT22;21605;52.068;20.806;2022-07-24T06:21:51;19.80;97.50
35491;DHT22;21605;52.068;20.806;2022-07-24T06:24:18;19.90;97.30
35491;DHT22;21605;52.068;20.806;2022-07-24T06:26:45;19.90;96.60
35491;DHT22;21605;52.068;20.806;2022-07-24T06:29:10;20.00;96.70
35491;DHT22;21605;52.068;20.806;2022-07-24T06:31:36;20.10;96.70
35491;DHT22;21605;52.068;20.806;2022-07-24T06:34:02;20.20;96.80
35491;DHT22;21605;52.068;20.806;2022-07-24T06:36:27;20.20;96.30
35491;DHT22;21605;52.068;20.806;2022-07-24T06:38:53;20.30;97.00
35491;DHT22;21605;52.068;20.806;2022-07-24T06:41:19;20.50;97.00
35491;DHT22;21605;52.068;20.806;2022-07-24T06:43:45;20.60;96.00
35491;DHT22;21605;52.068;20.806;2022-07-24T06:46:10;20.60;95.50
35491;DHT22;21605;52.068;20.806;2022-07-24T06:48:36;20.70;95.10
35491;DHT22;21605;52.068;20.806;2022-07-24T06:51:03;20.70;94.90
35491;DHT22;21605;52.068;20.806;2022-07-24T06:53:29;20.80;94.90
35491;DHT22;21605;52.068;20.806;2022-07-24T06:55:54;20.80;94.00
35491;DHT22;21605;52.068;20.806;2022-07-24T06:58:21;20.90;94.50
35491;DHT22;21605;52.068;20.806;2022-07-24T07:01:08;21.00;94.10
35491;DHT22;21605;52.068;20.806;2022-07-24T07:03:34;21.10;94.30
35491;DHT22;21605;52.068;20.806;2022-07-24T07:06:00;21.10;94.10
35491;DHT22;21605;52.068;20.806;2022-07-24T07:08:25;21.10;94.40
35491;DHT22;21605;52.068;20.806;2022-07-24T07:10:51;21.10;94.40
35491;DHT22;21605;52.068;20.806;2022-07-24T07:13:16;21.20;94.00
35491;DHT22;21605;52.068;20.806;2022-07-24T07:15:42;21.20;93.40
35491;DHT22;21605;52.068;20.806;2022-07-24T07:18:08;21.30;93.50
35491;DHT22;21605;52.068;20.806;2022-07-24T07:20:33;21.30;93.00
35491;DHT22;21605;52.068;20.806;2022-07-24T07:22:59;21.40;93.20
35491;DHT22;21605;52.068;20.806;2022-07-24T07:25:25;21.50;92.80
35491;DHT22;21605;52.068;20.806;2022-07-24T07:27:50;21.40;92.70
35491;DHT22;21605;52.068;20.806;2022-07-24T07:30:16;21.40;92.30
35491;DHT22;21605;52.068;20.806;2022-07-24T07:32:42;21.50;91.70
35491;DHT22;21605;52.068;20.806;2022-07-24T07:35:08;21.60;92.00
35491;DHT22;21605;52.068;20.806;2022-07-24T07:37:34;21.70;92.00
35491;DHT22;21605;52.068;20.806;2022-07-24T07:40:00;21.70;91.80
35491;DHT22;21605;52.068;20.806;2022-07-24T07:42:26;21.90;91.80
35491;DHT22;21605;52.068;20.806;2022-07-24T07:44:52;22.00;92.10
35491;DHT22;21605;52.068;20.806;2022-07-24T07:47:17;22.10;91.00
35491;DHT22;21605;52.068;20.806;2022-07-24T07:49:43;22.20;91.40
35491;DHT22;21605;52.068;20.806;2022-07-24T07:52:08;22.40;91.50
35491;DHT22;21605;52.068;20.806;2022-07-24T07:54:35;22.40;90.90
35491;DHT22;21605;52.068;20.806;2022-07-24T07:57:01;22.60;90.80
35491;DHT22;21605;52.068;20.806;2022-07-24T07:59:26;22.70;91.10
35491;DHT22;21605;52.068;20.806;2022-07-24T08:01:52;22.90;91.30
35491;DHT22;21605;52.068;20.806;2022-07-24T08:04:18;23.00;90.80
35491;DHT22;21605;52.068;20.806;2022-07-24T08:06:43;23.20;91.00
35491;DHT22;21605;52.068;20.806;2022-07-24T08:09:09;23.30;90.40
35491;DHT22;21605;52.068;20.806;2022-07-24T08:11:35;23.40;89.90
35491;DHT22;21605;52.068;20.806;2022-07-24T08:14:00;23.30;88.80
35491;DHT22;21605;52.068;20.806;2022-07-24T08:16:26;23.50;87.90
35491;DHT22;21605;52.068;20.806;2022-07-24T08:18:52;23.60;87.10
35491;DHT22;21605;52.068;20.806;2022-07-24T08:21:18;23.60;86.60
35491;DHT22;21605;52.068;20.806;2022-07-24T08:23:46;22.60;84.50
35491;DHT22;21605;52.068;20.806;2022-07-24T08:26:12;23.80;86.50
35491;DHT22;21605;52.068;20.806;2022-07-24T08:28:38;24.00;88.10
35491;DHT22;21605;52.068;20.806;2022-07-24T08:31:04;24.20;86.60
35491;DHT22;21605;52.068;20.806;2022-07-24T08:33:29;24.10;83.80
35491;DHT22;21605;52.068;20.806;2022-07-24T08:35:55;24.30;84.00
35491;DHT22;21605;52.068;20.806;2022-07-24T08:38:21;24.40;84.40
35491;DHT22;21605;52.068;20.806;2022-07-24T08:40:47;24.50;83.80
35491;DHT22;21605;52.068;20.806;2022-07-24T08:43:13;24.70;82.20
35491;DHT22;21605;52.068;20.806;2022-07-24T08:45:40;24.80;82.50
35491;DHT22;21605;52.068;20.806;2022-07-24T08:48:08;24.80;81.30
35491;DHT22;21605;52.068;20.806;2022-07-24T08:50:37;23.50;80.70
35491;DHT22;21605;52.068;20.806;2022-07-24T08:53:04;24.90;82.60
35491;DHT22;21605;52.068;20.806;2022-07-24T08:55:30;24.90;82.50
35491;DHT22;21605;52.068;20.806;2022-07-24T08:57:59;24.90;81.60
35491;DHT22;21605;52.068;20.806;2022-07-24T09:00:27;24.90;81.50
35491;DHT22;21605;52.068;20.806;2022-07-24T09:02:53;24.90;81.20
35491;DHT22;21605;52.068;20.806;2022-07-24T09:05:19;24.60;80.60
35491;DHT22;21605;52.068;20.806;2022-07-24T09:07:45;24.60;80.10
35491;DHT22;21605;52.068;20.806;2022-07-24T09:10:16;24.40;81.10
35491;DHT22;21605;52.068;20.806;2022-07-24T09:12:47;24.40;81.70
35491;DHT22;21605;52.068;20.806;2022-07-24T09:15:17;24.20;81.40
35491;DHT22;21605;52.068;20.806;2022-07-24T09:17:52;24.30;82.30
35491;DHT22;21605;52.068;20.806;2022-07-24T09:20:20;24.20;83.30
35491;DHT22;21605;52.068;20.806;2022-07-24T09:22:46;24.20;82.80
35491;DHT22;21605;52.068;20.806;2022-07-24T09:27:54;24.10;82.70
35491;DHT22;21605;52.068;20.806;2022-07-24T09:30:36;24.20;82.80
35491;DHT22;21605;52.068;20.806;2022-07-24T09:33:14;24.10;82.70
35491;DHT22;21605;52.068;20.806;2022-07-24T09:35:48;24.10;83.00
35491;DHT22;21605;52.068;20.806;2022-07-24T09:38:20;23.90;82.20
35491;DHT22;21605;52.068;20.806;2022-07-24T09:40:51;23.80;81.80
35491;DHT22;21605;52.068;20.806;2022-07-24T09:46:07;23.60;82.90
35491;DHT22;21605;52.068;20.806;2022-07-24T09:48:35;23.60;83.80
35491;DHT22;21605;52.068;20.806;2022-07-24T09:51:13;23.60;84.10
35491;DHT22;21605;52.068;20.806;2022-07-24T09:53:41;23.50;83.90
35491;DHT22;21605;52.068;20.806;2022-07-24T09:56:09;23.50;85.10
35491;DHT22;21605;52.068;20.806;2022-07-24T09:58:40;23.50;85.70
35491;DHT22;21605;52.068;20.806;2022-07-24T10:01:08;23.40;84.70
35491;DHT22;21605;52.068;20.806;2022-07-24T10:03:36;23.40;84.50
35491;DHT22;21605;52.068;20.806;2022-07-24T10:06:06;23.40;84.50
35491;DHT22;21605;52.068;20.806;2022-07-24T10:08:34;23.30;84.30
35491;DHT22;21605;52.068;20.806;2022-07-24T10:11:00;23.40;85.00
35491;DHT22;21605;52.068;20.806;2022-07-24T10:13:27;23.60;86.30
35491;DHT22;21605;52.068;20.806;2022-07-24T10:16:29;23.80;86.50
35491;DHT22;21605;52.068;20.806;2022-07-24T10:21:31;24.30;85.80
35491;DHT22;21605;52.068;20.806;2022-07-24T10:26:41;24.70;84.40
35491;DHT22;21605;52.068;20.806;2022-07-24T10:29:18;24.70;83.00
35491;DHT22;21605;52.068;20.806;2022-07-24T10:31:53;24.80;81.10
35491;DHT22;21605;52.068;20.806;2022-07-24T10:37:26;25.00;80.50
35491;DHT22;21605;52.068;20.806;2022-07-24T10:40:27;25.20;80.60
35491;DHT22;21605;52.068;20.806;2022-07-24T10:45:42;25.30;80.30
35491;DHT22;21605;52.068;20.806;2022-07-24T10:53:25;25.20;77.40
35491;DHT22;21605;52.068;20.806;2022-07-24T10:55:52;25.00;79.10
35491;DHT22;21605;52.068;20.806;2022-07-24T10:58:21;24.90;80.00
35491;DHT22;21605;52.068;20.806;2022-07-24T11:00:50;24.80;79.70
35491;DHT22;21605;52.068;20.806;2022-07-24T11:03:26;24.70;80.30
35491;DHT22;21605;52.068;20.806;2022-07-24T11:06:07;24.60;80.00
35491;DHT22;21605;52.068;20.806;2022-07-24T11:08:40;24.60;80.80
35491;DHT22;21605;52.068;20.806;2022-07-24T11:11:17;24.50;80.50
35491;DHT22;21605;52.068;20.806;2022-07-24T11:13:55;24.30;80.30
35491;DHT22;21605;52.068;20.806;2022-07-24T11:16:28;24.30;80.70
35491;DHT22;21605;52.068;20.806;2022-07-24T11:21:41;24.30;81.70
35491;DHT22;21605;52.068;20.806;2022-07-24T11:29:25;24.20;81.60
35491;DHT22;21605;52.068;20.806;2022-07-24T11:32:14;24.10;81.60
35491;DHT22;21605;52.068;20.806;2022-07-24T11:34:45;24.10;81.40
35491;DHT22;21605;52.068;20.806;2022-07-24T11:37:11;24.10;82.30
35491;DHT22;21605;52.068;20.806;2022-07-24T11:39:39;24.10;82.50
35491;DHT22;21605;52.068;20.806;2022-07-24T11:42:09;24.20;83.80
35491;DHT22;21605;52.068;20.806;2022-07-24T11:44:47;24.30;83.20
35491;DHT22;21605;52.068;20.806;2022-07-24T11:47:24;24.30;83.00
35491;DHT22;21605;52.068;20.806;2022-07-24T11:50:00;24.50;82.40
35491;DHT22;21605;52.068;20.806;2022-07-24T11:52:34;24.70;83.30
35491;DHT22;21605;52.068;20.806;2022-07-24T11:57:34;24.80;81.30
35491;DHT22;21605;52.068;20.806;2022-07-24T12:00:01;24.80;81.80
35491;DHT22;21605;52.068;20.806;2022-07-24T12:02:27;24.80;80.90
35491;DHT22;21605;52.068;20.806;2022-07-24T12:04:53;24.80;81.10
35491;DHT22;21605;52.068;20.806;2022-07-24T12:07:26;24.80;79.90
35491;DHT22;21605;52.068;20.806;2022-07-24T12:10:00;24.80;79.30
35491;DHT22;21605;52.068;20.806;2022-07-24T12:15:10;24.70;79.40
35491;DHT22;21605;52.068;20.806;2022-07-24T12:20:43;24.70;80.30
35491;DHT22;21605;52.068;20.806;2022-07-24T12:23:13;24.60;81.50
35491;DHT22;21605;52.068;20.806;2022-07-24T12:25:39;24.50;80.30
35491;DHT22;21605;52.068;20.806;2022-07-24T12:28:08;24.50;80.60
35491;DHT22;21605;52.068;20.806;2022-07-24T12:30:39;24.50;81.40
35491;DHT22;21605;52.068;20.806;2022-07-24T12:33:25;24.50;80.40
35491;DHT22;21605;52.068;20.806;2022-07-24T12:35:59;25.60;81.60
35491;DHT22;21605;52.068;20.806;2022-07-24T12:38:33;24.50;81.60
35491;DHT22;21605;52.068;20.806;2022-07-24T12:43:53;24.50;81.30
35491;DHT22;21605;52.068;20.806;2022-07-24T12:46:34;24.70;82.10
35491;DHT22;21605;52.068;20.806;2022-07-24T12:49:09;24.80;80.90
35491;DHT22;21605;52.068;20.806;2022-07-24T12:54:25;25.10;82.00
35491;DHT22;21605;52.068;20.806;2022-07-24T12:56:54;25.10;80.90
35491;DHT22;21605;52.068;20.806;2022-07-24T12:59:34;25.10;81.20
35491;DHT22;21605;52.068;20.806;2022-07-24T13:02:08;25.10;81.80
35491;DHT22;21605;52.068;20.806;2022-07-24T13:04:54;25.10;80.20
35491;DHT22;21605;52.068;20.806;2022-07-24T13:07:22;25.10;80.50
35491;DHT22;21605;52.068;20.806;2022-07-24T13:09:49;25.10;80.10
35491;DHT22;21605;52.068;20.806;2022-07-24T13:12:15;25.10;81.10
35491;DHT22;21605;52.068;20.806;2022-07-24T13:14:41;25.10;81.10
35491;DHT22;21605;52.068;20.806;2022-07-24T13:17:09;25.20;81.20
35491;DHT22;21605;52.068;20.806;2022-07-24T13:19:39;25.30;81.00
35491;DHT22;21605;52.068;20.806;2022-07-24T13:22:05;25.40;81.50
35491;DHT22;21605;52.068;20.806;2022-07-24T13:24:31;25.40;81.20
35491;DHT22;21605;52.068;20.806;2022-07-24T13:27:03;25.30;80.60
35491;DHT22;21605;52.068;20.806;2022-07-24T13:29:29;25.30;81.10
35491;DHT22;21605;52.068;20.806;2022-07-24T13:31:54;25.30;80.80
35491;DHT22;21605;52.068;20.806;2022-07-24T13:34:20;25.30;80.30
35491;DHT22;21605;52.068;20.806;2022-07-24T13:36:46;25.20;79.20
35491;DHT22;21605;52.068;20.806;2022-07-24T13:39:13;25.10;79.60
35491;DHT22;21605;52.068;20.806;2022-07-24T13:41:39;25.20;80.60
35491;DHT22;21605;52.068;20.806;2022-07-24T13:44:05;25.10;79.60
35491;DHT22;21605;52.068;20.806;2022-07-24T13:46:32;25.10;80.60
35491;DHT22;21605;52.068;20.806;2022-07-24T13:49:01;25.10;80.30
35491;DHT22;21605;52.068;20.806;2022-07-24T13:51:26;25.10;79.70
35491;DHT22;21605;52.068;20.806;2022-07-24T13:53:54;25.10;79.90
35491;DHT22;21605;52.068;20.806;2022-07-24T13:56:20;25.00;79.90
35491;DHT22;21605;52.068;20.806;2022-07-24T13:58:48;25.00;80.70
35491;DHT22;21605;52.068;20.806;2022-07-24T14:01:13;25.10;80.50
35491;DHT22;21605;52.068;20.806;2022-07-24T14:03:39;25.10;80.50
35491;DHT22;21605;52.068;20.806;2022-07-24T14:06:10;25.10;81.50
35491;DHT22;21605;52.068;20.806;2022-07-24T14:08:37;25.00;79.50
35491;DHT22;21605;52.068;20.806;2022-07-24T14:11:04;25.00;79.40
35491;DHT22;21605;52.068;20.806;2022-07-24T14:13:30;25.00;78.90
35491;DHT22;21605;52.068;20.806;2022-07-24T14:15:55;25.00;79.00
35491;DHT22;21605;52.068;20.806;2022-07-24T14:18:21;25.00;78.80
35491;DHT22;21605;52.068;20.806;2022-07-24T14:20:47;25.00;79.70
35491;DHT22;21605;52.068;20.806;2022-07-24T14:23:13;25.00;79.30
35491;DHT22;21605;52.068;20.806;2022-07-24T14:25:40;25.00;79.50
35491;DHT22;21605;52.068;20.806;2022-07-24T14:28:05;25.00;79.40
35491;DHT22;21605;52.068;20.806;2022-07-24T14:30:32;25.00;79.20
35491;DHT22;21605;52.068;20.806;2022-07-24T14:32:57;25.00;77.80
35491;DHT22;21605;52.068;20.806;2022-07-24T14:35:23;24.90;77.60
35491;DHT22;21605;52.068;20.806;2022-07-24T14:37:49;24.90;78.90
35491;DHT22;21605;52.068;20.806;2022-07-24T14:40:15;25.00;79.20
35491;DHT22;21605;52.068;20.806;2022-07-24T14:42:40;24.90;78.00
35491;DHT22;21605;52.068;20.806;2022-07-24T14:45:06;24.90;78.90
35491;DHT22;21605;52.068;20.806;2022-07-24T14:47:32;24.90;78.50
35491;DHT22;21605;52.068;20.806;2022-07-24T14:49:58;24.90;77.80
35491;DHT22;21605;52.068;20.806;2022-07-24T14:52:24;24.90;77.50
35491;DHT22;21605;52.068;20.806;2022-07-24T14:54:50;24.80;77.60
35491;DHT22;21605;52.068;20.806;2022-07-24T14:57:16;24.80;76.10
35491;DHT22;21605;52.068;20.806;2022-07-24T14:59:42;24.80;77.20
35491;DHT22;21605;52.068;20.806;2022-07-24T15:02:08;24.80;77.30
35491;DHT22;21605;52.068;20.806;2022-07-24T15:04:35;24.80;78.10
35491;DHT22;21605;52.068;20.806;2022-07-24T15:07:01;24.70;77.90
35491;DHT22;21605;52.068;20.806;2022-07-24T15:09:27;24.70;77.50
35491;DHT22;21605;52.068;20.806;2022-07-24T15:11:52;24.70;77.60
35491;DHT22;21605;52.068;20.806;2022-07-24T15:14:18;24.80;77.60
35491;DHT22;21605;52.068;20.806;2022-07-24T15:16:44;24.80;77.60
35491;DHT22;21605;52.068;20.806;2022-07-24T15:19:09;24.80;77.60
35491;DHT22;21605;52.068;20.806;2022-07-24T15:21:36;24.70;77.10
35491;DHT22;21605;52.068;20.806;2022-07-24T15:24:03;24.70;77.20
35491;DHT22;21605;52.068;20.806;2022-07-24T15:26:29;24.70;76.70
35491;DHT22;21605;52.068;20.806;2022-07-24T15:28:54;24.70;76.90
35491;DHT22;21605;52.068;20.806;2022-07-24T15:31:20;24.70;76.90
35491;DHT22;21605;52.068;20.806;2022-07-24T15:33:48;24.70;77.40
35491;DHT22;21605;52.068;20.806;2022-07-24T15:36:14;24.70;77.70
35491;DHT22;21605;52.068;20.806;2022-07-24T15:38:40;24.60;77.30
35491;DHT22;21605;52.068;20.806;2022-07-24T15:41:05;24.60;77.60
35491;DHT22;21605;52.068;20.806;2022-07-24T15:43:31;24.60;77.80
35491;DHT22;21605;52.068;20.806;2022-07-24T15:45:57;24.60;78.10
35491;DHT22;21605;52.068;20.806;2022-07-24T15:48:23;24.60;77.50
35491;DHT22;21605;52.068;20.806;2022-07-24T15:50:49;24.50;77.50
35491;DHT22;21605;52.068;20.806;2022-07-24T15:53:15;24.50;77.60
35491;DHT22;21605;52.068;20.806;2022-07-24T15:55:41;24.50;77.20
35491;DHT22;21605;52.068;20.806;2022-07-24T15:58:07;24.50;77.40
35491;DHT22;21605;52.068;20.806;2022-07-24T16:00:32;24.50;78.20
35491;DHT22;21605;52.068;20.806;2022-07-24T16:02:58;24.40;78.10